createdAt,value
2023-01-30T00:00:15.728Z,18.13
2023-01-30T00:01:15.692Z,17.83
2023-01-30T00:02:07.236Z,16.88
2023-01-30T00:02:58.866Z,17.33
2023-01-30T00:03:50.302Z,17.95
2023-01-30T00:04:41.936Z,18.03
2023-01-30T00:05:33.401Z,18.96
2023-01-30T00:06:25.647Z,18.62
2023-01-30T00:07:17.538Z,17.83
2023-01-30T00:08:09.027Z,18.22
2023-01-30T00:09:00.458Z,18.01
2023-01-30T00:09:51.874Z,17.99
2023-01-30T00:10:44.491Z,18.20
2023-01-30T00:11:36.134Z,18.39
2023-01-30T00:12:27.925Z,18.85
2023-01-30T00:13:19.411Z,18.48
2023-01-30T00:14:11.098Z,18.40
2023-01-30T00:15:02.538Z,17.76
2023-01-30T00:15:54.481Z,17.44
2023-01-30T00:16:47.415Z,18.00
2023-01-30T00:17:38.850Z,17.70
2023-01-30T00:18:31.185Z,17.99
2023-01-30T00:19:22.934Z,18.03
2023-01-30T00:20:15.797Z,17.70
2023-01-30T00:21:09.986Z,18.86
2023-01-30T00:22:01.473Z,18.17
2023-01-30T00:23:00.905Z,19.24
2023-01-30T00:23:52.774Z,18.81
2023-01-30T00:24:44.539Z,18.53
2023-01-30T00:25:36.538Z,17.71
2023-01-30T00:26:28.078Z,17.66
2023-01-30T00:27:19.746Z,16.58
2023-01-30T00:28:11.157Z,16.92
2023-01-30T00:29:02.560Z,17.57
2023-01-30T00:30:02.866Z,16.60
2023-01-30T00:30:56.917Z,17.47
2023-01-30T00:31:48.703Z,16.65
2023-01-30T00:32:41.974Z,17.11
2023-01-30T00:33:33.516Z,16.58
2023-01-30T00:34:24.971Z,17.27
2023-01-30T00:35:17.107Z,16.65
2023-01-30T00:36:10.528Z,17.08
2023-01-30T00:37:08.486Z,17.98
2023-01-30T00:38:01.602Z,16.79
2023-01-30T00:38:53.252Z,17.00
2023-01-30T00:39:44.727Z,17.37
2023-01-30T00:40:36.475Z,16.76
2023-01-30T00:41:48.072Z,16.83
2023-01-30T00:42:58.194Z,16.06
2023-01-30T00:44:08.458Z,16.14
2023-01-30T00:45:19.059Z,16.00
2023-01-30T00:46:50.696Z,16.93
2023-01-30T00:47:42.366Z,17.06
2023-01-30T00:48:33.856Z,17.13
2023-01-30T00:49:25.465Z,16.88
2023-01-30T00:50:17.039Z,16.59
2023-01-30T00:51:08.618Z,16.21
2023-01-30T00:52:02.785Z,16.65
2023-01-30T00:52:54.205Z,17.32
2023-01-30T00:53:45.684Z,16.66
2023-01-30T00:54:39.009Z,16.64
2023-01-30T00:55:30.393Z,16.02
2023-01-30T00:56:21.953Z,15.90
2023-01-30T00:57:13.388Z,16.42
2023-01-30T00:58:06.095Z,16.29
2023-01-30T00:58:57.528Z,17.13
2023-01-30T00:59:49.749Z,16.96
2023-01-30T01:00:42.273Z,16.52
2023-01-30T01:01:34.081Z,16.16
2023-01-30T01:02:26.367Z,16.98
2023-01-30T01:03:19.168Z,16.19
2023-01-30T01:04:10.779Z,15.79
2023-01-30T01:05:02.290Z,15.89
2023-01-30T01:05:53.955Z,16.61
2023-01-30T01:06:45.501Z,17.16
2023-01-30T01:07:37.391Z,16.97
2023-01-30T01:08:30.250Z,17.33
2023-01-30T01:09:21.841Z,17.23
2023-01-30T01:10:16.285Z,17.74
2023-01-30T01:11:07.937Z,18.20
2023-01-30T01:11:59.329Z,17.54
2023-01-30T01:12:54.359Z,17.89
2023-01-30T01:13:46.040Z,16.64
2023-01-30T01:14:37.737Z,16.83
2023-01-30T01:15:30.250Z,17.46
2023-01-30T01:16:23.028Z,16.82
2023-01-30T01:17:14.608Z,17.22
2023-01-30T01:18:06.410Z,16.86
2023-01-30T01:18:58.739Z,17.64
2023-01-30T01:19:50.349Z,17.18
2023-01-30T01:20:41.940Z,16.72
2023-01-30T01:21:33.412Z,17.34
2023-01-30T01:22:25.054Z,17.37
2023-01-30T01:23:16.682Z,17.91
2023-01-30T01:24:13.388Z,18.15
2023-01-30T01:25:06.478Z,19.03
2023-01-30T01:26:01.688Z,17.95
2023-01-30T01:26:53.732Z,17.90
2023-01-30T01:27:46.100Z,19.01
2023-01-30T01:28:38.750Z,17.66
2023-01-30T01:29:30.545Z,18.30
2023-01-30T01:30:23.009Z,18.87
2023-01-30T01:31:17.484Z,18.60
2023-01-30T01:32:09.190Z,18.30
2023-01-30T01:33:00.878Z,18.19
2023-01-30T01:33:52.766Z,19.03
2023-01-30T01:34:44.256Z,19.17
2023-01-30T01:35:40.923Z,18.86
2023-01-30T01:37:02.356Z,19.12
2023-01-30T01:37:44.159Z,18.94
2023-01-30T01:38:35.638Z,19.28
2023-01-30T01:39:47.126Z,18.27
2023-01-30T01:40:57.238Z,18.34
2023-01-30T01:41:48.687Z,18.93
2023-01-30T01:42:40.590Z,19.30
2023-01-30T01:43:38.529Z,18.32
2023-01-30T01:45:08.574Z,18.47
2023-01-30T01:46:14.130Z,18.44
2023-01-30T01:47:05.916Z,18.57
2023-01-30T01:48:15.766Z,18.49
2023-01-30T01:49:22.658Z,18.31
2023-01-30T01:50:21.377Z,18.05
2023-01-30T01:51:40.390Z,17.97
2023-01-30T01:52:32.986Z,17.46
2023-01-30T01:53:33.034Z,18.21
2023-01-30T01:54:44.457Z,18.67
2023-01-30T01:55:41.437Z,17.01
2023-01-30T01:56:35.974Z,18.29
2023-01-30T01:57:39.865Z,19.12
2023-01-30T01:58:52.770Z,18.05
2023-01-30T01:59:54.991Z,17.70
2023-01-30T02:00:48.573Z,17.96
2023-01-30T02:01:40.072Z,17.83
2023-01-30T02:02:34.633Z,18.32
2023-01-30T02:03:30.697Z,18.78
2023-01-30T02:04:42.308Z,18.74
2023-01-30T02:05:44.113Z,19.31
2023-01-30T02:06:38.993Z,17.62
2023-01-30T02:07:57.712Z,18.04
2023-01-30T02:08:57.260Z,17.62
2023-01-30T02:09:51.700Z,18.29
2023-01-30T02:11:03.692Z,18.44
2023-01-30T02:12:01.774Z,18.25
2023-01-30T02:12:53.451Z,18.83
2023-01-30T02:13:48.324Z,18.05
2023-01-30T02:14:41.303Z,17.35
2023-01-30T02:15:33.745Z,18.13
2023-01-30T02:16:25.355Z,18.30
2023-01-30T02:17:18.313Z,16.19
2023-01-30T02:18:10.565Z,17.42
2023-01-30T02:19:02.371Z,17.41
2023-01-30T02:20:08.341Z,17.54
2023-01-30T02:21:44.498Z,16.93
2023-01-30T02:22:54.190Z,17.30
2023-01-30T02:24:04.851Z,17.98
2023-01-30T02:25:21.376Z,18.45
2023-01-30T02:26:31.988Z,17.68
2023-01-30T02:28:04.120Z,16.44
2023-01-30T02:29:48.659Z,16.68
2023-01-30T02:30:52.676Z,17.25
2023-01-30T02:31:53.932Z,17.10
2023-01-30T02:33:01.220Z,18.45
2023-01-30T02:34:29.707Z,17.47
2023-01-30T02:35:27.500Z,16.62
2023-01-30T02:36:52.033Z,17.63
2023-01-30T02:37:57.339Z,18.12
2023-01-30T02:38:49.030Z,17.32
2023-01-30T02:40:08.798Z,17.07
2023-01-30T02:41:15.416Z,16.73
2023-01-30T02:42:28.653Z,17.16
2023-01-30T02:43:52.053Z,16.46
2023-01-30T02:45:01.385Z,17.02
2023-01-30T02:46:08.893Z,17.18
2023-01-30T02:47:42.340Z,16.05
2023-01-30T02:48:49.388Z,16.99
2023-01-30T02:49:48.816Z,16.70
2023-01-30T02:50:54.745Z,17.23
2023-01-30T02:51:50.204Z,17.94
2023-01-30T02:52:43.072Z,17.90
2023-01-30T02:53:36.543Z,16.97
2023-01-30T02:54:29.415Z,16.44
2023-01-30T02:55:27.147Z,16.14
2023-01-30T02:56:19.069Z,17.72
2023-01-30T02:57:25.561Z,16.99
2023-01-30T02:58:26.516Z,16.98
2023-01-30T02:59:25.649Z,17.21
2023-01-30T03:00:32.931Z,17.37
2023-01-30T03:01:37.823Z,17.12
2023-01-30T03:03:08.060Z,16.69
2023-01-30T03:04:31.300Z,17.08
2023-01-30T03:05:46.078Z,17.22
2023-01-30T03:07:03.895Z,16.81
2023-01-30T03:08:28.124Z,17.22
2023-01-30T03:09:44.288Z,16.58
2023-01-30T03:11:04.410Z,16.61
2023-01-30T03:12:05.248Z,17.22
2023-01-30T03:13:27.092Z,17.34
2023-01-30T03:14:42.740Z,17.49
2023-01-30T03:15:50.066Z,16.96
2023-01-30T03:16:41.935Z,17.16
2023-01-30T03:17:36.559Z,17.57
2023-01-30T03:18:28.432Z,17.59
2023-01-30T03:19:21.152Z,16.77
2023-01-30T03:20:15.491Z,16.09
2023-01-30T03:21:08.269Z,16.57
2023-01-30T03:22:00.496Z,17.63
2023-01-30T03:22:54.468Z,17.35
2023-01-30T03:23:47.244Z,17.98
2023-01-30T03:24:38.746Z,16.60
2023-01-30T03:25:32.363Z,16.88
2023-01-30T03:26:30.552Z,18.53
2023-01-30T03:27:22.973Z,17.43
2023-01-30T03:28:22.521Z,17.80
2023-01-30T03:29:15.082Z,17.86
2023-01-30T03:30:07.795Z,17.55
2023-01-30T03:31:00.363Z,17.91
2023-01-30T03:31:51.992Z,17.18
2023-01-30T03:32:43.700Z,18.27
2023-01-30T03:33:35.283Z,17.92
2023-01-30T03:34:26.775Z,17.34
2023-01-30T03:35:18.902Z,16.82
2023-01-30T03:36:12.356Z,17.50
2023-01-30T03:37:06.144Z,17.48
2023-01-30T03:38:00.349Z,18.10
2023-01-30T03:38:52.389Z,17.25
2023-01-30T03:39:45.266Z,17.78
2023-01-30T03:40:40.129Z,17.60
2023-01-30T03:41:32.200Z,17.48
2023-01-30T03:42:26.029Z,18.22
2023-01-30T03:43:18.569Z,17.49
2023-01-30T03:44:10.166Z,16.57
2023-01-30T03:45:01.827Z,17.12
2023-01-30T03:45:53.417Z,17.52
2023-01-30T03:46:45.711Z,16.62
2023-01-30T03:47:37.816Z,16.92
2023-01-30T03:48:30.611Z,17.55
2023-01-30T03:49:37.487Z,16.94
2023-01-30T03:50:29.650Z,17.45
2023-01-30T03:51:21.613Z,17.28
2023-01-30T03:52:13.226Z,16.99
2023-01-30T03:53:04.694Z,17.08
2023-01-30T03:53:56.321Z,16.37
2023-01-30T03:54:48.042Z,16.96
2023-01-30T03:55:40.447Z,17.18
2023-01-30T03:56:32.167Z,16.40
2023-01-30T03:57:24.536Z,15.95
2023-01-30T03:58:16.199Z,16.25
2023-01-30T03:59:09.166Z,16.78
2023-01-30T04:00:06.971Z,17.16
2023-01-30T04:01:07.728Z,17.09
2023-01-30T04:01:59.359Z,17.37
2023-01-30T04:02:51.244Z,16.25
2023-01-30T04:03:43.062Z,16.41
2023-01-30T04:04:35.259Z,16.72
2023-01-30T04:05:29.564Z,17.03
2023-01-30T04:06:27.960Z,16.69
2023-01-30T04:07:20.794Z,16.93
2023-01-30T04:08:15.157Z,16.12
2023-01-30T04:09:06.928Z,16.89
2023-01-30T04:10:09.671Z,16.42
2023-01-30T04:11:01.442Z,16.23
2023-01-30T04:11:56.606Z,16.47
2023-01-30T04:12:49.834Z,15.81
2023-01-30T04:13:42.465Z,16.19
2023-01-30T04:14:35.150Z,16.18
2023-01-30T04:15:40.783Z,17.27
2023-01-30T04:16:49.400Z,16.98
2023-01-30T04:18:06.226Z,17.03
2023-01-30T04:19:13.762Z,16.47
2023-01-30T04:20:06.827Z,16.76
2023-01-30T04:21:00.362Z,17.20
2023-01-30T04:22:00.355Z,16.51
2023-01-30T04:22:51.886Z,16.91
2023-01-30T04:23:43.505Z,16.07
2023-01-30T04:24:35.009Z,16.41
2023-01-30T04:25:26.624Z,16.25
2023-01-30T04:26:18.168Z,16.24
2023-01-30T04:27:10.358Z,16.45
2023-01-30T04:28:08.498Z,16.05
2023-01-30T04:29:02.320Z,15.61
2023-01-30T04:29:54.910Z,16.30
2023-01-30T04:30:46.447Z,16.76
2023-01-30T04:32:07.207Z,15.76
2023-01-30T04:33:00.980Z,16.31
2023-01-30T04:33:52.406Z,16.00
2023-01-30T04:34:45.049Z,16.69
2023-01-30T04:35:36.520Z,15.01
2023-01-30T04:36:29.293Z,15.36
2023-01-30T04:37:20.810Z,15.13
2023-01-30T04:38:13.526Z,15.04
2023-01-30T04:39:05.201Z,16.04
2023-01-30T04:39:57.583Z,14.50
2023-01-30T04:40:55.093Z,15.96
2023-01-30T04:41:47.854Z,15.43
2023-01-30T04:42:40.233Z,15.58
2023-01-30T04:44:07.188Z,15.75
2023-01-30T04:45:14.319Z,15.90
2023-01-30T04:46:06.116Z,17.40
2023-01-30T04:46:57.784Z,18.45
2023-01-30T04:47:49.435Z,17.69
2023-01-30T04:48:41.137Z,17.34
2023-01-30T04:49:32.616Z,16.63
2023-01-30T04:50:25.232Z,18.90
2023-01-30T04:51:16.886Z,18.91
2023-01-30T04:52:09.048Z,17.53
2023-01-30T04:53:01.359Z,16.82
2023-01-30T04:53:53.042Z,16.82
2023-01-30T04:54:44.651Z,17.16
2023-01-30T04:55:37.779Z,16.65
2023-01-30T04:56:29.378Z,17.19
2023-01-30T04:57:21.100Z,16.71
2023-01-30T04:58:12.800Z,17.35
2023-01-30T04:59:04.449Z,18.40
2023-01-30T05:00:01.595Z,17.62
2023-01-30T05:00:53.239Z,17.67
2023-01-30T05:01:44.976Z,17.84
2023-01-30T05:02:36.493Z,17.35
2023-01-30T05:03:28.009Z,16.78
2023-01-30T05:04:19.519Z,16.56
2023-01-30T05:05:10.986Z,17.15
2023-01-30T05:06:02.426Z,17.51
2023-01-30T05:06:54.178Z,16.65
2023-01-30T05:07:49.486Z,17.44
2023-01-30T05:08:46.591Z,16.41
2023-01-30T05:09:38.485Z,17.40
2023-01-30T05:10:30.074Z,17.49
2023-01-30T05:11:23.563Z,17.96
2023-01-30T05:12:15.091Z,17.82
2023-01-30T05:13:07.159Z,16.49
2023-01-30T05:13:59.394Z,16.56
2023-01-30T05:14:51.044Z,16.26
2023-01-30T05:15:42.448Z,16.97
2023-01-30T05:16:33.879Z,17.38
2023-01-30T05:17:25.438Z,17.37
2023-01-30T05:18:17.372Z,18.11
2023-01-30T05:19:13.082Z,17.99
2023-01-30T05:20:07.243Z,17.11
2023-01-30T05:21:31.520Z,16.86
2023-01-30T05:22:22.982Z,17.27
2023-01-30T05:23:14.443Z,16.46
2023-01-30T05:24:06.408Z,16.70
2023-01-30T05:24:57.809Z,17.75
2023-01-30T05:25:49.257Z,17.37
2023-01-30T05:26:40.911Z,17.91
2023-01-30T05:27:32.591Z,17.88
2023-01-30T05:28:24.328Z,18.68
2023-01-30T05:29:15.975Z,18.58
2023-01-30T05:30:08.528Z,18.07
2023-01-30T05:31:05.587Z,17.34
2023-01-30T05:31:57.419Z,16.94
2023-01-30T05:32:49.043Z,17.50
2023-01-30T05:33:41.362Z,18.35
2023-01-30T05:34:32.913Z,17.71
2023-01-30T05:35:24.546Z,17.34
2023-01-30T05:36:19.326Z,16.99
2023-01-30T05:37:12.474Z,16.39
2023-01-30T05:38:04.263Z,16.10
2023-01-30T05:38:55.936Z,16.55
2023-01-30T05:39:47.901Z,16.54
2023-01-30T05:40:39.346Z,16.66
2023-01-30T05:41:30.880Z,16.07
2023-01-30T05:42:22.438Z,16.41
2023-01-30T05:43:13.841Z,16.22
2023-01-30T05:44:05.740Z,15.83
2023-01-30T05:44:57.261Z,16.59
2023-01-30T05:45:55.111Z,16.25
2023-01-30T05:46:46.575Z,15.92
2023-01-30T05:47:38.019Z,16.13
2023-01-30T05:48:29.844Z,15.20
2023-01-30T05:49:21.773Z,15.84
2023-01-30T05:50:13.472Z,15.08
2023-01-30T05:51:05.260Z,15.48
2023-01-30T05:51:57.230Z,15.25
2023-01-30T05:52:48.887Z,14.86
2023-01-30T05:53:40.290Z,15.17
2023-01-30T05:54:31.962Z,14.91
2023-01-30T05:55:23.638Z,15.72
2023-01-30T05:56:16.180Z,14.38
2023-01-30T05:57:07.610Z,15.03
2023-01-30T05:57:59.000Z,14.12
2023-01-30T05:58:55.304Z,13.62
2023-01-30T05:59:47.036Z,14.39
2023-01-30T06:00:38.852Z,14.84
2023-01-30T06:01:30.693Z,14.72
2023-01-30T06:02:22.164Z,14.27
2023-01-30T06:03:13.874Z,14.06
2023-01-30T06:04:05.597Z,13.59
2023-01-30T06:04:57.380Z,14.09
2023-01-30T06:05:48.804Z,14.44
2023-01-30T06:06:40.235Z,14.17
2023-01-30T06:07:32.121Z,14.41
2023-01-30T06:08:24.027Z,14.69
2023-01-30T06:09:15.643Z,14.92
2023-01-30T06:10:07.371Z,13.82
2023-01-30T06:11:08.519Z,14.30
2023-01-30T06:11:59.988Z,13.28
2023-01-30T06:12:51.438Z,13.46
2023-01-30T06:13:43.917Z,13.81
2023-01-30T06:14:35.628Z,13.94
2023-01-30T06:15:27.461Z,12.62
2023-01-30T06:16:19.711Z,13.02
2023-01-30T06:17:11.284Z,13.34
2023-01-30T06:18:03.027Z,13.37
2023-01-30T06:18:54.777Z,13.61
2023-01-30T06:19:46.657Z,13.80
2023-01-30T06:20:38.219Z,14.02
2023-01-30T06:21:29.668Z,14.14
2023-01-30T06:22:21.101Z,13.37
2023-01-30T06:23:12.495Z,13.30
2023-01-30T06:24:04.246Z,13.07
2023-01-30T06:24:55.794Z,12.91
2023-01-30T06:25:49.555Z,13.21
2023-01-30T06:26:41.126Z,13.70
2023-01-30T06:27:32.730Z,13.28
2023-01-30T06:28:25.727Z,13.79
2023-01-30T06:29:17.348Z,13.00
2023-01-30T06:30:09.623Z,12.72
2023-01-30T06:31:01.705Z,13.10
2023-01-30T06:31:53.486Z,13.39
2023-01-30T06:32:44.993Z,12.74
2023-01-30T06:33:36.450Z,12.88
2023-01-30T06:34:27.894Z,12.08
2023-01-30T06:35:19.818Z,12.80
2023-01-30T06:36:11.565Z,12.67
2023-01-30T06:37:03.217Z,12.82
2023-01-30T06:37:54.625Z,12.52
2023-01-30T06:38:46.141Z,11.95
2023-01-30T06:39:37.565Z,11.85
2023-01-30T06:40:29.269Z,12.40
2023-01-30T06:41:21.013Z,12.04
2023-01-30T06:42:12.576Z,12.47
2023-01-30T06:43:04.703Z,12.00
2023-01-30T06:43:56.250Z,11.97
2023-01-30T06:44:47.729Z,12.06
2023-01-30T06:45:40.081Z,11.84
2023-01-30T06:46:31.523Z,11.87
2023-01-30T06:47:23.290Z,11.32
2023-01-30T06:48:14.901Z,11.84
2023-01-30T06:49:06.444Z,12.56
2023-01-30T06:49:58.143Z,12.51
2023-01-30T06:50:49.844Z,12.07
2023-01-30T06:51:41.508Z,12.09
2023-01-30T06:52:33.044Z,11.36
2023-01-30T06:53:30.219Z,11.64
2023-01-30T06:54:21.889Z,11.32
2023-01-30T06:55:16.399Z,12.14
2023-01-30T06:56:08.183Z,11.56
2023-01-30T06:56:59.624Z,11.28
2023-01-30T06:58:06.862Z,11.41
2023-01-30T06:58:58.539Z,11.85
2023-01-30T06:59:50.188Z,11.96
2023-01-30T07:00:43.244Z,11.27
2023-01-30T07:01:35.011Z,12.45
2023-01-30T07:02:35.099Z,12.01
2023-01-30T07:03:26.862Z,11.58
2023-01-30T07:04:18.621Z,11.54
2023-01-30T07:05:11.509Z,11.61
2023-01-30T07:06:03.110Z,11.78
2023-01-30T07:06:54.834Z,11.22
2023-01-30T07:07:47.397Z,11.75
2023-01-30T07:08:40.713Z,11.30
2023-01-30T07:09:32.116Z,11.16
2023-01-30T07:10:24.259Z,11.08
2023-01-30T07:11:15.949Z,10.93
2023-01-30T07:12:07.467Z,11.08
2023-01-30T07:12:59.760Z,11.03
2023-01-30T07:13:51.404Z,12.09
2023-01-30T07:14:43.119Z,11.81
2023-01-30T07:15:34.659Z,12.09
2023-01-30T07:16:29.346Z,11.73
2023-01-30T07:17:22.473Z,11.65
2023-01-30T07:18:14.249Z,12.42
2023-01-30T07:19:05.865Z,11.87
2023-01-30T07:19:57.318Z,12.72
2023-01-30T07:20:49.510Z,12.55
2023-01-30T07:21:41.119Z,12.21
2023-01-30T07:22:33.445Z,11.91
2023-01-30T07:23:25.138Z,12.66
2023-01-30T07:24:16.550Z,12.85
2023-01-30T07:25:09.128Z,11.38
2023-01-30T07:26:05.131Z,12.40
2023-01-30T07:26:57.159Z,12.06
2023-01-30T07:27:56.214Z,12.33
2023-01-30T07:28:47.764Z,13.22
2023-01-30T07:29:40.435Z,13.72
2023-01-30T07:30:35.884Z,12.42
2023-01-30T07:31:27.408Z,12.38
2023-01-30T07:32:20.122Z,12.60
2023-01-30T07:33:20.311Z,11.88
2023-01-30T07:34:11.833Z,11.47
2023-01-30T07:35:05.835Z,12.15
2023-01-30T07:35:57.731Z,11.82
2023-01-30T07:36:49.227Z,11.82
2023-01-30T07:37:41.660Z,12.77
2023-01-30T07:38:33.292Z,11.38
2023-01-30T07:39:24.894Z,12.09
2023-01-30T07:40:16.916Z,12.64
2023-01-30T07:41:08.580Z,12.26
2023-01-30T07:42:01.506Z,12.04
2023-01-30T07:43:02.273Z,12.98
2023-01-30T07:45:03.118Z,12.62
2023-01-30T07:45:55.038Z,12.38
2023-01-30T07:46:46.513Z,12.93
2023-01-30T07:47:38.106Z,11.82
2023-01-30T07:48:29.559Z,12.66
2023-01-30T07:49:21.426Z,12.76
2023-01-30T07:50:12.863Z,13.01
2023-01-30T07:51:04.368Z,12.72
2023-01-30T07:51:55.829Z,12.97
2023-01-30T07:52:47.337Z,12.93
2023-01-30T07:53:38.877Z,12.58
2023-01-30T07:54:30.378Z,12.37
2023-01-30T07:55:21.892Z,12.82
2023-01-30T07:56:18.512Z,13.36
2023-01-30T07:57:10.053Z,13.16
2023-01-30T07:58:01.947Z,12.43
2023-01-30T07:58:57.154Z,12.58
2023-01-30T07:59:48.575Z,13.09
2023-01-30T08:00:40.949Z,12.88
2023-01-30T08:01:33.142Z,12.80
2023-01-30T08:02:24.697Z,13.25
2023-01-30T08:03:17.406Z,13.23
2023-01-30T08:04:08.945Z,13.05
2023-01-30T08:05:00.653Z,12.41
2023-01-30T08:05:54.029Z,12.92
2023-01-30T08:06:45.783Z,12.49
2023-01-30T08:07:37.230Z,12.30
2023-01-30T08:08:29.219Z,12.36
2023-01-30T08:09:20.979Z,12.96
2023-01-30T08:10:12.493Z,13.10
2023-01-30T08:11:04.005Z,12.36
2023-01-30T08:11:55.697Z,12.18
2023-01-30T08:12:50.784Z,12.08
2023-01-30T08:13:42.245Z,12.08
2023-01-30T08:14:33.795Z,12.61
2023-01-30T08:15:25.422Z,12.41
2023-01-30T08:16:17.099Z,13.39
2023-01-30T08:17:08.611Z,13.62
2023-01-30T08:18:00.392Z,13.22
2023-01-30T08:18:51.925Z,12.58
2023-01-30T08:19:43.600Z,12.83
2023-01-30T08:20:36.089Z,13.59
2023-01-30T08:21:28.322Z,13.92
2023-01-30T08:22:19.942Z,13.27
2023-01-30T08:23:12.485Z,12.32
2023-01-30T08:24:04.338Z,12.07
2023-01-30T08:24:55.923Z,12.26
2023-01-30T08:25:47.413Z,13.47
2023-01-30T08:26:39.333Z,13.32
2023-01-30T08:27:31.009Z,14.28
2023-01-30T08:28:23.147Z,13.79
2023-01-30T08:29:14.853Z,13.83
2023-01-30T08:30:06.965Z,14.32
2023-01-30T08:30:59.281Z,13.65
2023-01-30T08:31:51.414Z,13.62
2023-01-30T08:32:46.813Z,13.83
2023-01-30T08:33:38.638Z,14.40
2023-01-30T08:34:30.366Z,13.91
2023-01-30T08:35:22.062Z,14.01
2023-01-30T08:36:13.865Z,13.31
2023-01-30T08:37:08.496Z,12.84
2023-01-30T08:38:05.687Z,12.56
2023-01-30T08:38:57.164Z,12.75
2023-01-30T08:39:48.614Z,13.44
2023-01-30T08:40:40.420Z,12.94
2023-01-30T08:41:31.927Z,13.27
2023-01-30T08:42:23.506Z,12.61
2023-01-30T08:43:15.048Z,12.83
2023-01-30T08:44:06.625Z,12.75
2023-01-30T08:44:58.157Z,13.08
2023-01-30T08:45:53.460Z,12.75
2023-01-30T08:46:45.067Z,12.30
2023-01-30T08:47:36.936Z,12.40
2023-01-30T08:48:34.126Z,13.30
2023-01-30T08:49:31.623Z,13.20
2023-01-30T08:50:23.074Z,12.98
2023-01-30T08:51:14.957Z,12.96
2023-01-30T08:52:06.678Z,12.23
2023-01-30T08:53:02.529Z,12.49
2023-01-30T08:53:54.244Z,12.85
2023-01-30T08:54:45.939Z,12.78
2023-01-30T08:55:37.478Z,12.22
2023-01-30T08:56:28.952Z,11.69
2023-01-30T08:57:20.660Z,12.33
2023-01-30T08:58:12.349Z,13.14
2023-01-30T08:59:04.102Z,12.54
2023-01-30T08:59:55.838Z,11.90
2023-01-30T09:00:49.404Z,13.44
2023-01-30T09:01:41.181Z,13.13
2023-01-30T09:02:32.972Z,12.76
2023-01-30T09:03:24.493Z,13.30
2023-01-30T09:04:17.105Z,13.17
2023-01-30T09:05:10.941Z,13.09
2023-01-30T09:06:02.705Z,12.74
2023-01-30T09:06:54.827Z,12.68
2023-01-30T09:07:46.304Z,12.14
2023-01-30T09:08:37.942Z,11.69
2023-01-30T09:09:30.376Z,10.93
2023-01-30T09:10:24.391Z,11.56
2023-01-30T09:11:17.688Z,12.02
2023-01-30T09:12:09.248Z,11.51
2023-01-30T09:13:00.811Z,11.62
2023-01-30T09:13:52.317Z,12.47
2023-01-30T09:14:43.825Z,11.66
2023-01-30T09:15:35.331Z,11.12
2023-01-30T09:16:26.936Z,11.22
2023-01-30T09:17:18.845Z,11.71
2023-01-30T09:18:10.251Z,11.21
2023-01-30T09:19:01.727Z,11.06
2023-01-30T09:19:53.673Z,11.06
2023-01-30T09:20:46.165Z,10.82
2023-01-30T09:21:38.972Z,10.77
2023-01-30T09:22:30.575Z,10.20
2023-01-30T09:23:22.074Z,10.14
2023-01-30T09:24:13.691Z,10.36
2023-01-30T09:25:08.085Z,9.46
2023-01-30T09:26:00.385Z,9.47
2023-01-30T09:26:57.699Z,9.60
2023-01-30T09:27:50.544Z,9.60
2023-01-30T09:28:42.202Z,8.96
2023-01-30T09:29:33.887Z,9.28
2023-01-30T09:30:25.964Z,8.19
2023-01-30T09:31:17.743Z,7.67
2023-01-30T09:32:09.296Z,7.84
2023-01-30T09:33:00.767Z,8.02
2023-01-30T09:33:52.387Z,8.28
2023-01-30T09:34:44.025Z,7.97
2023-01-30T09:35:35.607Z,7.47
2023-01-30T09:36:27.227Z,7.70
2023-01-30T09:37:18.976Z,6.93
2023-01-30T09:38:10.522Z,6.82
2023-01-30T09:39:02.008Z,6.56
2023-01-30T09:39:54.958Z,6.86
2023-01-30T09:41:08.021Z,6.85
2023-01-30T09:42:25.908Z,6.42
2023-01-30T09:43:17.289Z,5.06
2023-01-30T09:44:46.373Z,5.72
2023-01-30T09:45:45.490Z,5.29
2023-01-30T09:46:50.416Z,4.73
2023-01-30T09:48:10.982Z,4.64
2023-01-30T09:49:14.389Z,5.10
2023-01-30T09:50:21.330Z,5.14
2023-01-30T09:51:44.296Z,5.12
2023-01-30T09:52:59.734Z,5.25
2023-01-30T09:54:20.146Z,5.23
2023-01-30T09:55:19.750Z,4.96
2023-01-30T09:56:11.378Z,4.83
2023-01-30T09:57:21.284Z,5.15
2023-01-30T09:58:19.923Z,5.36
2023-01-30T09:59:25.078Z,4.80
2023-01-30T10:00:24.567Z,5.05
2023-01-30T10:01:31.777Z,5.31
2023-01-30T10:03:03.420Z,4.92
2023-01-30T10:04:11.726Z,5.15
2023-01-30T10:05:05.123Z,5.27
2023-01-30T10:06:02.510Z,6.46
2023-01-30T10:07:18.080Z,5.87
2023-01-30T10:08:40.332Z,5.50
2023-01-30T10:10:05.036Z,5.37
2023-01-30T10:11:19.850Z,5.43
2023-01-30T10:12:31.703Z,4.48
2023-01-30T10:13:29.106Z,4.80
2023-01-30T10:14:46.341Z,4.80
2023-01-30T10:16:10.552Z,4.79
2023-01-30T10:17:23.151Z,4.80
2023-01-30T10:18:46.280Z,4.41
2023-01-30T10:20:20.883Z,6.05
2023-01-30T10:21:42.727Z,4.93
2023-01-30T10:22:53.745Z,5.16
2023-01-30T10:24:05.570Z,5.47
2023-01-30T10:25:15.539Z,5.40
2023-01-30T10:26:16.486Z,5.37
2023-01-30T10:27:17.496Z,6.66
2023-01-30T10:28:16.402Z,5.94
2023-01-30T10:29:14.005Z,6.23
2023-01-30T10:30:10.374Z,6.03
2023-01-30T10:31:13.587Z,6.40
2023-01-30T10:32:11.396Z,5.91
2023-01-30T10:33:06.081Z,5.66
2023-01-30T10:34:04.109Z,6.81
2023-01-30T10:35:14.526Z,6.24
2023-01-30T10:36:20.828Z,6.22
2023-01-30T10:37:30.884Z,6.06
2023-01-30T10:38:35.517Z,6.27
2023-01-30T10:39:55.208Z,5.54
2023-01-30T10:41:00.845Z,6.31
2023-01-30T10:42:08.227Z,6.97
2023-01-30T10:43:19.847Z,6.07
2023-01-30T10:44:14.849Z,6.43
2023-01-30T10:45:15.055Z,6.01
2023-01-30T10:46:29.322Z,6.83
2023-01-30T10:47:47.512Z,6.80
2023-01-30T10:49:02.126Z,7.14
2023-01-30T10:50:09.447Z,5.57
2023-01-30T10:51:19.392Z,6.75
2023-01-30T10:52:27.446Z,6.01
2023-01-30T10:53:36.142Z,5.37
2023-01-30T10:54:48.548Z,5.91
2023-01-30T10:55:52.445Z,6.40
2023-01-30T10:57:04.063Z,5.95
2023-01-30T10:58:31.309Z,5.76
2023-01-30T10:59:45.506Z,6.02
2023-01-30T11:01:05.993Z,5.81
2023-01-30T11:02:25.541Z,6.01
2023-01-30T11:04:01.245Z,6.76
2023-01-30T11:05:02.759Z,6.06
2023-01-30T11:06:01.397Z,6.16
2023-01-30T11:06:55.959Z,6.17
2023-01-30T11:07:49.098Z,5.81
2023-01-30T11:08:40.679Z,6.87
2023-01-30T11:09:42.858Z,6.04
2023-01-30T11:10:34.959Z,5.57
2023-01-30T11:11:52.284Z,6.13
2023-01-30T11:12:43.905Z,6.14
2023-01-30T11:13:35.562Z,6.78
2023-01-30T11:14:27.097Z,6.50
2023-01-30T11:15:19.024Z,6.23
2023-01-30T11:16:11.692Z,6.80
2023-01-30T11:17:03.822Z,6.10
2023-01-30T11:18:40.464Z,5.91
2023-01-30T11:19:22.800Z,6.57
2023-01-30T11:20:16.379Z,6.33
2023-01-30T11:21:19.270Z,5.47
2023-01-30T11:22:15.316Z,5.90
2023-01-30T11:23:24.000Z,5.83
2023-01-30T11:24:24.844Z,5.75
2023-01-30T11:25:21.068Z,6.05
2023-01-30T11:26:41.503Z,5.80
2023-01-30T11:27:44.465Z,5.04
2023-01-30T11:28:41.816Z,6.36
2023-01-30T11:29:35.453Z,5.56
2023-01-30T11:30:35.825Z,5.18
2023-01-30T11:31:40.844Z,5.39
2023-01-30T11:32:33.181Z,5.32
2023-01-30T11:33:36.586Z,5.90
2023-01-30T11:34:28.156Z,5.32
2023-01-30T11:35:27.554Z,5.23
2023-01-30T11:36:31.209Z,5.82
2023-01-30T11:37:32.455Z,5.37
2023-01-30T11:38:33.498Z,5.50
2023-01-30T11:39:29.352Z,5.97
2023-01-30T11:40:30.979Z,6.95
2023-01-30T11:41:23.326Z,6.49
2023-01-30T11:42:14.800Z,6.94
2023-01-30T11:43:12.826Z,6.92
2023-01-30T11:44:05.597Z,6.50
2023-01-30T11:45:16.091Z,5.77
2023-01-30T11:46:13.855Z,5.73
2023-01-30T11:47:17.665Z,6.35
2023-01-30T11:48:33.238Z,5.87
2023-01-30T11:50:03.567Z,5.54
2023-01-30T11:51:04.664Z,6.03
2023-01-30T11:51:56.415Z,5.82
2023-01-30T11:52:48.672Z,5.58
2023-01-30T11:53:50.880Z,6.72
2023-01-30T11:54:46.033Z,6.18
2023-01-30T11:55:38.513Z,5.64
2023-01-30T11:56:36.742Z,5.78
2023-01-30T11:57:28.766Z,7.25
2023-01-30T11:58:20.459Z,6.63
2023-01-30T11:59:34.783Z,6.39
2023-01-30T12:00:39.553Z,6.29
2023-01-30T12:01:37.200Z,7.83
2023-01-30T12:02:29.641Z,6.76
2023-01-30T12:03:25.775Z,5.93
2023-01-30T12:04:18.442Z,6.74
2023-01-30T12:05:28.297Z,6.54
2023-01-30T12:06:35.968Z,6.40
2023-01-30T12:07:30.276Z,5.77
2023-01-30T12:08:40.614Z,6.70
2023-01-30T12:09:35.753Z,5.82
2023-01-30T12:10:31.514Z,6.15
2023-01-30T12:11:42.482Z,6.99
2023-01-30T12:12:43.688Z,7.32
2023-01-30T12:13:43.484Z,6.96
2023-01-30T12:14:35.167Z,5.81
2023-01-30T12:15:35.228Z,6.11
2023-01-30T12:16:39.298Z,6.78